createdAt,value
2024-05-09T00:00:46.213Z,6.35
2024-05-09T00:03:13.914Z,5.78
2024-05-09T00:05:42.165Z,6.00
2024-05-09T00:08:10.616Z,5.40
2024-05-09T00:10:39.634Z,6.65
2024-05-09T00:13:08.631Z,5.85
2024-05-09T00:15:36.811Z,6.50
2024-05-09T00:18:05.554Z,6.30
2024-05-09T00:20:38.831Z,5.78
2024-05-09T00:23:12.677Z,5.63
2024-05-09T00:25:43.000Z,4.85
2024-05-09T00:28:11.788Z,4.68
2024-05-09T00:30:39.257Z,4.00
2024-05-09T00:33:08.192Z,4.20
2024-05-09T00:35:37.242Z,4.93
2024-05-09T00:38:05.158Z,4.53
2024-05-09T00:40:40.516Z,3.53
2024-05-09T00:43:14.478Z,4.72
2024-05-09T00:45:42.927Z,4.20
2024-05-09T00:48:12.263Z,3.85
2024-05-09T00:50:42.117Z,3.47
2024-05-09T00:53:13.439Z,3.70
2024-05-09T00:55:41.015Z,3.97
2024-05-09T00:58:09.069Z,3.92
2024-05-09T01:00:39.973Z,4.05
2024-05-09T01:03:11.274Z,4.28
2024-05-09T01:05:40.852Z,3.35
2024-05-09T01:08:09.044Z,4.20
2024-05-09T01:10:37.409Z,3.75
2024-05-09T01:13:05.788Z,3.40
2024-05-09T01:18:12.384Z,3.60
2024-05-09T01:20:43.825Z,3.90
2024-05-09T01:23:14.663Z,3.47
2024-05-09T01:25:43.982Z,3.55
2024-05-09T01:28:11.586Z,3.22
2024-05-09T01:30:39.118Z,3.45
2024-05-09T01:33:09.050Z,3.40
2024-05-09T01:35:39.362Z,3.50
2024-05-09T01:38:08.037Z,3.85
2024-05-09T01:43:11.533Z,5.28
2024-05-09T01:45:40.497Z,4.95
2024-05-09T01:50:40.495Z,4.50
2024-05-09T01:53:10.889Z,4.38
2024-05-09T01:58:06.300Z,5.05
2024-05-09T02:00:39.412Z,4.60
2024-05-09T02:03:15.924Z,3.90
2024-05-09T02:05:46.153Z,3.20
2024-05-09T02:08:15.485Z,3.67
2024-05-09T02:10:44.644Z,3.20
2024-05-09T02:13:12.477Z,3.40
2024-05-09T02:15:39.938Z,3.42
2024-05-09T02:18:08.859Z,3.45
2024-05-09T02:20:39.396Z,3.13
2024-05-09T02:23:07.425Z,3.38
2024-05-09T02:25:35.055Z,3.17
2024-05-09T02:28:02.615Z,3.67
2024-05-09T02:30:38.833Z,3.25
2024-05-09T02:33:11.072Z,3.75
2024-05-09T02:35:40.558Z,3.67
2024-05-09T02:38:09.231Z,3.83
2024-05-09T02:40:38.963Z,4.28
2024-05-09T02:43:08.264Z,3.53
2024-05-09T02:45:36.561Z,5.35
2024-05-09T02:48:04.264Z,6.20
2024-05-09T02:50:37.891Z,7.88
2024-05-09T02:53:13.811Z,6.65
2024-05-09T02:55:42.554Z,6.82
2024-05-09T03:00:40.959Z,5.30
2024-05-09T03:03:15.246Z,4.95
2024-05-09T03:05:44.661Z,5.53
2024-05-09T03:08:12.716Z,4.97
2024-05-09T03:10:40.457Z,5.15
2024-05-09T03:13:08.926Z,4.30
2024-05-09T03:18:04.908Z,4.80
2024-05-09T03:23:05.074Z,4.13
2024-05-09T03:25:33.280Z,3.83
2024-05-09T03:28:00.775Z,3.92
2024-05-09T03:30:36.231Z,5.25
2024-05-09T03:33:18.003Z,6.55
2024-05-09T03:35:47.479Z,5.13
2024-05-09T03:38:15.272Z,4.45
2024-05-09T03:40:50.307Z,4.30
2024-05-09T03:43:18.597Z,4.03
2024-05-09T03:45:47.648Z,4.32
2024-05-09T03:48:15.424Z,4.03
2024-05-09T03:50:43.206Z,3.97
2024-05-09T03:53:11.668Z,4.15
2024-05-09T03:58:09.778Z,5.80
2024-05-09T04:00:39.491Z,4.95
2024-05-09T04:03:10.470Z,8.10
2024-05-09T04:05:41.743Z,5.43
2024-05-09T04:08:10.875Z,5.35
2024-05-09T04:10:38.586Z,6.15
2024-05-09T04:13:06.037Z,5.75
2024-05-09T04:15:33.630Z,6.85
2024-05-09T04:18:01.916Z,6.85
2024-05-09T04:20:37.573Z,6.32
2024-05-09T04:23:09.136Z,6.88
2024-05-09T04:25:37.238Z,4.70
2024-05-09T04:28:05.461Z,5.00
2024-05-09T04:30:38.544Z,5.95
2024-05-09T04:33:10.895Z,6.13
2024-05-09T04:35:42.619Z,6.13
2024-05-09T04:38:10.653Z,5.10
2024-05-09T04:40:38.439Z,4.95
2024-05-09T04:43:07.807Z,5.00
2024-05-09T04:45:35.769Z,5.10
2024-05-09T04:48:03.881Z,6.45
2024-05-09T04:50:36.945Z,5.85
2024-05-09T04:53:08.511Z,5.50
2024-05-09T04:55:37.438Z,5.70
2024-05-09T04:58:05.872Z,4.53
2024-05-09T05:03:08.488Z,7.35
2024-05-09T05:05:43.484Z,4.97
2024-05-09T05:08:17.036Z,5.45
2024-05-09T05:10:46.279Z,4.68
2024-05-09T05:13:21.231Z,5.05
2024-05-09T05:15:50.413Z,4.43
2024-05-09T05:18:18.660Z,5.07
2024-05-09T05:20:46.560Z,5.25
2024-05-09T05:23:15.597Z,5.68
2024-05-09T05:25:43.462Z,5.65
2024-05-09T05:28:11.244Z,6.38
2024-05-09T05:30:39.070Z,5.63
2024-05-09T05:33:07.095Z,5.85
2024-05-09T05:35:35.233Z,5.07
2024-05-09T05:38:03.489Z,5.63
2024-05-09T05:40:37.171Z,5.55
2024-05-09T05:43:17.392Z,4.53
2024-05-09T05:45:45.167Z,6.03
2024-05-09T05:48:13.504Z,5.57
2024-05-09T05:50:41.230Z,5.40
2024-05-09T05:53:09.670Z,4.70
2024-05-09T05:55:38.266Z,5.22
2024-05-09T05:58:05.931Z,4.82
2024-05-09T06:00:38.450Z,4.70
2024-05-09T06:03:08.734Z,5.03
2024-05-09T06:05:37.598Z,4.45
2024-05-09T06:08:05.486Z,4.20
2024-05-09T06:10:38.339Z,4.65
2024-05-09T06:13:08.284Z,4.10
2024-05-09T06:15:35.787Z,4.38
2024-05-09T06:18:06.437Z,4.55
2024-05-09T06:20:36.824Z,4.53
2024-05-09T06:23:06.988Z,5.03
2024-05-09T06:25:38.024Z,4.30
2024-05-09T06:28:06.026Z,4.18
2024-05-09T06:30:38.927Z,4.18
2024-05-09T06:33:10.786Z,4.63
2024-05-09T06:35:40.193Z,4.35
2024-05-09T06:38:11.003Z,4.78
2024-05-09T06:40:41.778Z,4.10
2024-05-09T06:43:14.752Z,4.63
2024-05-09T06:45:43.232Z,4.20
2024-05-09T06:48:10.793Z,4.30
2024-05-09T06:50:39.815Z,4.35
2024-05-09T06:53:08.760Z,4.57
2024-05-09T06:55:36.878Z,4.45
2024-05-09T06:58:06.194Z,3.83
2024-05-09T07:00:39.130Z,3.92
2024-05-09T07:03:09.975Z,4.45
2024-05-09T07:05:38.351Z,5.97
2024-05-09T07:08:06.739Z,5.00
2024-05-09T07:10:36.211Z,4.95
2024-05-09T07:13:08.608Z,4.30
2024-05-09T07:15:35.962Z,4.55
2024-05-09T07:18:20.477Z,4.18
2024-05-09T07:20:49.827Z,4.97
2024-05-09T07:23:18.218Z,4.32
2024-05-09T07:25:46.156Z,4.63
2024-05-09T07:28:17.923Z,4.40
2024-05-09T07:30:45.620Z,4.90
2024-05-09T07:33:21.331Z,4.97
2024-05-09T07:35:50.434Z,4.60
2024-05-09T07:38:17.975Z,4.10
2024-05-09T07:40:45.624Z,4.50
2024-05-09T07:43:14.734Z,4.57
2024-05-09T07:45:51.271Z,5.00
2024-05-09T07:52:37.638Z,4.90
2024-05-09T07:53:50.646Z,4.75
2024-05-09T07:56:22.767Z,4.40
2024-05-09T07:58:52.314Z,5.60
2024-05-09T08:01:21.150Z,4.25
2024-05-09T08:03:49.037Z,4.82
2024-05-09T08:06:16.560Z,4.70
2024-05-09T08:08:43.970Z,4.65
2024-05-09T08:11:11.440Z,3.90
2024-05-09T08:13:38.988Z,4.28
2024-05-09T08:16:07.219Z,5.00
2024-05-09T08:18:34.784Z,4.50
2024-05-09T08:21:02.498Z,4.78
2024-05-09T08:23:29.944Z,4.32
2024-05-09T08:25:57.358Z,4.45
2024-05-09T08:28:24.887Z,4.32
2024-05-09T08:30:52.502Z,4.28
2024-05-09T08:33:20.240Z,3.97
2024-05-09T08:35:47.811Z,4.40
2024-05-09T08:38:15.292Z,4.00
2024-05-09T08:40:43.101Z,4.80
2024-05-09T08:45:44.016Z,3.90
2024-05-09T08:48:13.916Z,4.40
2024-05-09T08:50:42.286Z,5.10
2024-05-09T08:53:10.235Z,3.55
2024-05-09T08:55:41.588Z,3.95
2024-05-09T08:58:20.728Z,4.28
2024-05-09T09:00:49.190Z,4.68
2024-05-09T09:03:20.435Z,4.50
2024-05-09T09:06:00.765Z,4.47
2024-05-09T09:08:28.177Z,4.22
2024-05-09T09:10:57.866Z,4.38
2024-05-09T09:13:25.524Z,3.95
2024-05-09T09:15:57.763Z,4.40
2024-05-09T09:18:26.878Z,4.82
2024-05-09T09:20:54.518Z,3.95
2024-05-09T09:23:22.119Z,4.38
2024-05-09T09:25:49.531Z,4.13
2024-05-09T09:28:16.989Z,4.28
2024-05-09T09:30:44.563Z,4.25
2024-05-09T09:33:12.502Z,3.67
2024-05-09T09:38:08.052Z,3.67
2024-05-09T09:40:43.171Z,4.47
2024-05-09T09:43:23.901Z,4.00
2024-05-09T09:45:53.431Z,3.35
2024-05-09T09:48:22.763Z,3.63
2024-05-09T09:50:52.273Z,3.47
2024-05-09T09:53:20.238Z,2.90
2024-05-09T09:58:18.135Z,3.10
2024-05-09T10:00:46.019Z,3.15
2024-05-09T10:03:13.669Z,3.20
2024-05-09T10:05:44.255Z,2.30
2024-05-09T10:08:14.069Z,2.55
2024-05-09T10:10:41.657Z,2.53
2024-05-09T10:13:09.208Z,2.60
2024-05-09T10:15:45.804Z,2.50
2024-05-09T10:18:13.556Z,1.95
2024-05-09T10:20:44.895Z,2.33
2024-05-09T10:23:28.453Z,2.22
2024-05-09T10:26:06.335Z,2.67
2024-05-09T10:28:37.797Z,2.35
2024-05-09T10:31:13.648Z,2.50
2024-05-09T10:33:47.188Z,2.38
2024-05-09T10:36:15.153Z,2.33
2024-05-09T10:38:43.482Z,3.30
2024-05-09T10:41:11.664Z,2.42
2024-05-09T10:43:43.773Z,2.65
2024-05-09T10:46:11.818Z,2.50
2024-05-09T10:48:40.142Z,3.13
2024-05-09T10:51:07.647Z,3.28
2024-05-09T10:53:45.295Z,3.88
2024-05-09T10:56:14.348Z,3.20
2024-05-09T10:58:41.896Z,2.83
2024-05-09T11:01:10.625Z,2.72
2024-05-09T11:03:39.170Z,3.50
2024-05-09T11:06:07.299Z,4.18
2024-05-09T11:08:35.168Z,3.22
2024-05-09T11:11:04.983Z,3.50
2024-05-09T11:13:36.539Z,3.92
2024-05-09T11:16:04.675Z,3.70
2024-05-09T11:18:36.470Z,4.22
2024-05-09T11:21:14.669Z,3.30
2024-05-09T11:23:42.059Z,3.78
2024-05-09T11:26:11.166Z,4.38
2024-05-09T11:28:38.703Z,5.00
2024-05-09T11:31:08.020Z,3.53
2024-05-09T11:33:40.028Z,3.35
2024-05-09T11:36:08.187Z,3.42
2024-05-09T11:38:35.643Z,4.38
2024-05-09T11:41:03.839Z,3.40
2024-05-09T11:45:58.820Z,3.33
2024-05-09T11:48:27.263Z,4.85
2024-05-09T11:53:22.761Z,3.85
2024-05-09T11:55:50.429Z,4.25
2024-05-09T11:58:19.099Z,4.82
2024-05-09T12:00:47.390Z,3.92
2024-05-09T12:03:15.164Z,9.30
2024-05-09T12:05:42.789Z,7.05
2024-05-09T12:08:10.389Z,5.05
2024-05-09T12:10:38.099Z,4.28
2024-05-09T12:13:07.084Z,3.50
2024-05-09T12:15:38.064Z,2.90
2024-05-09T12:18:06.983Z,7.97
2024-05-09T12:20:38.210Z,5.65
2024-05-09T12:23:09.294Z,6.50
2024-05-09T12:25:38.248Z,4.53
2024-05-09T12:28:06.501Z,4.55
2024-05-09T12:33:12.494Z,3.75
2024-05-09T12:35:43.372Z,3.88
2024-05-09T12:38:13.161Z,3.80
2024-05-09T12:40:40.590Z,3.97
2024-05-09T12:43:09.271Z,3.85
2024-05-09T12:45:38.105Z,5.57
2024-05-09T12:48:08.551Z,8.15
2024-05-09T12:50:36.959Z,6.63
2024-05-09T12:53:05.435Z,5.30
2024-05-09T12:55:41.404Z,6.25
2024-05-09T12:58:19.331Z,7.20
2024-05-09T13:00:47.493Z,6.85
2024-05-09T13:03:15.405Z,6.07
2024-05-09T13:05:45.345Z,6.38
2024-05-09T13:08:13.590Z,7.35
2024-05-09T13:10:41.278Z,4.85
2024-05-09T13:13:10.371Z,5.90
2024-05-09T13:15:38.100Z,5.95
2024-05-09T13:18:06.751Z,6.40
2024-05-09T13:20:35.865Z,5.82
2024-05-09T13:23:08.325Z,6.70
2024-05-09T13:25:37.846Z,4.13
2024-05-09T13:28:06.282Z,3.90
2024-05-09T13:30:39.532Z,5.40
2024-05-09T13:33:11.516Z,4.30
2024-05-09T13:35:41.985Z,3.63
2024-05-09T13:38:11.548Z,4.82
2024-05-09T13:40:39.214Z,5.60
2024-05-09T13:43:07.103Z,3.63
2024-05-09T13:45:35.399Z,4.95
2024-05-09T13:50:35.673Z,6.03
2024-05-09T13:53:06.579Z,5.68
2024-05-09T13:55:35.598Z,5.07
2024-05-09T13:58:03.349Z,3.80
2024-05-09T14:00:42.720Z,4.28
2024-05-09T14:03:15.912Z,5.10
2024-05-09T14:05:44.007Z,4.20
2024-05-09T14:08:11.962Z,5.70
2024-05-09T14:10:44.638Z,4.85
2024-05-09T14:13:13.196Z,5.07
2024-05-09T14:15:41.162Z,4.68
2024-05-09T14:18:12.413Z,4.38
2024-05-09T14:20:41.529Z,4.90
2024-05-09T14:23:09.193Z,3.83
2024-05-09T14:25:39.766Z,4.47
2024-05-09T14:28:09.432Z,3.75
2024-05-09T14:30:38.497Z,3.17
2024-05-09T14:33:07.791Z,2.33
2024-05-09T14:35:37.846Z,2.47
2024-05-09T14:38:05.880Z,3.10
2024-05-09T14:43:04.026Z,3.58
2024-05-09T14:45:32.944Z,3.53
2024-05-09T14:48:00.703Z,3.45
2024-05-09T14:50:35.185Z,3.53
2024-05-09T14:53:06.830Z,3.38
2024-05-09T14:55:37.643Z,3.55
2024-05-09T14:58:11.984Z,4.18
2024-05-09T15:00:47.955Z,3.58
2024-05-09T15:03:19.633Z,3.38
2024-05-09T15:05:47.886Z,2.17
2024-05-09T15:08:15.397Z,2.22
2024-05-09T15:10:43.208Z,2.88
2024-05-09T15:13:13.228Z,2.90
2024-05-09T15:15:42.756Z,3.25
2024-05-09T15:18:10.316Z,3.70
2024-05-09T15:20:38.407Z,3.92
2024-05-09T15:23:06.957Z,4.10
2024-05-09T15:25:35.455Z,3.63
2024-05-09T15:28:03.387Z,4.68
2024-05-09T15:30:33.359Z,4.30
2024-05-09T15:33:06.418Z,4.03
2024-05-09T15:35:35.088Z,4.45
2024-05-09T15:38:03.589Z,5.05
2024-05-09T15:40:38.381Z,5.78
2024-05-09T15:43:09.301Z,7.75
2024-05-09T15:45:38.303Z,8.55
2024-05-09T15:48:06.429Z,10.48
2024-05-09T15:50:38.901Z,10.98
2024-05-09T15:53:10.125Z,12.27
2024-05-09T15:55:38.496Z,13.45
2024-05-09T15:58:07.125Z,11.43
2024-05-09T16:00:39.465Z,10.75
2024-05-09T16:03:10.659Z,10.65
2024-05-09T16:05:38.796Z,12.27
2024-05-09T16:08:07.181Z,11.98
2024-05-09T16:10:35.398Z,11.35
2024-05-09T16:13:03.940Z,12.63
2024-05-09T16:15:31.876Z,11.57
2024-05-09T16:18:00.019Z,12.27
2024-05-09T16:20:35.256Z,12.38
2024-05-09T16:23:08.705Z,12.98
2024-05-09T16:25:36.804Z,13.23
2024-05-09T16:28:08.626Z,13.50
2024-05-09T16:30:41.318Z,13.15
2024-05-09T16:33:11.087Z,13.23
2024-05-09T16:35:39.630Z,12.73
2024-05-09T16:38:07.448Z,11.55
2024-05-09T16:40:39.165Z,11.48
2024-05-09T16:43:10.013Z,13.13
2024-05-09T16:45:38.301Z,14.63
2024-05-09T16:48:06.904Z,15.00
2024-05-09T16:50:35.868Z,11.20
2024-05-09T16:53:05.641Z,13.68
2024-05-09T16:55:34.375Z,12.52
2024-05-09T16:58:02.751Z,13.25
2024-05-09T17:00:38.872Z,12.45
2024-05-09T17:03:10.893Z,10.32
2024-05-09T17:05:39.583Z,9.55
2024-05-09T17:08:07.730Z,11.50
2024-05-09T17:10:36.609Z,11.43
2024-05-09T17:13:06.184Z,11.30
2024-05-09T17:15:35.672Z,11.07
2024-05-09T17:18:04.186Z,11.20
2024-05-09T17:20:35.154Z,10.75
2024-05-09T17:23:05.968Z,12.27
2024-05-09T17:25:34.615Z,11.60
2024-05-09T17:28:07.893Z,10.38
2024-05-09T17:30:38.371Z,11.13
2024-05-09T17:33:08.792Z,10.98
2024-05-09T17:35:37.399Z,11.50
2024-05-09T17:38:06.343Z,12.00
2024-05-09T17:40:36.588Z,12.77
2024-05-09T17:43:07.671Z,12.63
2024-05-09T17:45:41.061Z,13.50
2024-05-09T17:48:10.643Z,13.02
2024-05-09T17:50:39.594Z,12.68
2024-05-09T17:53:07.614Z,11.75
2024-05-09T17:55:35.765Z,15.55
2024-05-09T17:58:04.448Z,14.27
2024-05-09T18:00:38.161Z,14.68
2024-05-09T18:03:11.798Z,13.65
2024-05-09T18:05:40.624Z,13.98
2024-05-09T18:08:08.891Z,10.77
2024-05-09T18:10:39.268Z,10.35
2024-05-09T18:13:09.056Z,11.32
2024-05-09T18:15:39.202Z,11.30
2024-05-09T18:18:07.576Z,11.68
2024-05-09T18:20:42.405Z,11.65
2024-05-09T18:23:14.356Z,11.60
2024-05-09T18:25:43.078Z,11.98
2024-05-09T18:28:10.954Z,12.32
2024-05-09T18:30:38.511Z,13.43
2024-05-09T18:33:07.951Z,11.50
2024-05-09T18:35:36.731Z,11.23
2024-05-09T18:38:05.788Z,9.57
2024-05-09T18:40:36.611Z,9.73
2024-05-09T18:43:07.830Z,10.27
2024-05-09T18:45:38.094Z,11.68
2024-05-09T18:48:07.333Z,10.38
2024-05-09T18:50:38.790Z,9.80
2024-05-09T18:53:08.469Z,9.65
2024-05-09T18:55:36.136Z,8.73
2024-05-09T18:58:05.021Z,9.45
2024-05-09T19:00:36.587Z,8.90
2024-05-09T19:03:12.429Z,9.70
2024-05-09T19:05:43.151Z,9.50
2024-05-09T19:08:11.828Z,9.55
2024-05-09T19:10:39.627Z,10.57
2024-05-09T19:13:11.737Z,10.07
2024-05-09T19:15:41.532Z,9.95
2024-05-09T19:18:09.876Z,9.50
2024-05-09T19:20:38.056Z,11.52
2024-05-09T19:25:35.364Z,9.30
2024-05-09T19:28:03.804Z,9.52
2024-05-09T19:30:38.699Z,9.82
2024-05-09T19:33:10.243Z,9.45
2024-05-09T19:35:38.862Z,10.20
2024-05-09T19:38:06.537Z,9.00
2024-05-09T19:40:35.456Z,8.57
2024-05-09T19:43:05.291Z,8.23
2024-05-09T19:45:35.064Z,9.48
2024-05-09T19:48:04.092Z,8.77
2024-05-09T19:53:11.658Z,8.60
2024-05-09T19:58:07.730Z,7.63
2024-05-09T20:00:38.158Z,8.18
2024-05-09T20:03:08.266Z,8.10
2024-05-09T20:05:36.982Z,7.07
2024-05-09T20:08:05.296Z,8.00
2024-05-09T20:10:35.084Z,8.57
2024-05-09T20:13:04.838Z,7.65
2024-05-09T20:15:34.942Z,7.63
2024-05-09T20:18:02.882Z,7.25
2024-05-09T20:20:37.446Z,6.60
2024-05-09T20:23:09.545Z,6.75
2024-05-09T20:28:06.614Z,7.10
2024-05-09T20:30:35.472Z,5.95
2024-05-09T20:33:05.026Z,6.65
2024-05-09T20:35:33.911Z,5.45
2024-05-09T20:38:02.516Z,6.20
2024-05-09T20:40:34.612Z,6.35
2024-05-09T20:45:34.171Z,6.05
2024-05-09T20:48:02.102Z,5.57
2024-05-09T20:50:37.214Z,6.97
2024-05-09T20:53:09.800Z,5.93
2024-05-09T20:55:37.509Z,6.63
2024-05-09T20:58:05.455Z,5.57
2024-05-09T21:00:40.209Z,5.72
2024-05-09T21:03:11.842Z,6.10
2024-05-09T21:05:40.444Z,5.57
2024-05-09T21:08:08.394Z,5.55
2024-05-09T21:10:37.118Z,4.80
2024-05-09T21:13:06.099Z,5.28
2024-05-09T21:15:34.475Z,4.38
2024-05-09T21:18:02.208Z,3.65
2024-05-09T21:20:32.811Z,3.60
2024-05-09T21:23:02.003Z,4.32
2024-05-09T21:25:30.106Z,4.03
2024-05-09T21:27:58.022Z,3.97
2024-05-09T21:32:55.894Z,3.80
2024-05-09T21:35:23.469Z,3.83
2024-05-09T21:37:50.827Z,3.10
2024-05-09T21:40:27.085Z,3.17
2024-05-09T21:43:01.445Z,2.97
2024-05-09T21:45:29.023Z,3.00
2024-05-09T21:47:56.613Z,2.67
2024-05-09T21:50:31.892Z,3.17
2024-05-09T21:53:06.781Z,2.50
2024-05-09T21:55:34.631Z,2.63
2024-05-09T21:58:02.476Z,2.45
2024-05-09T22:00:36.119Z,2.50
2024-05-09T22:03:09.468Z,3.10
2024-05-09T22:05:39.270Z,2.80
2024-05-09T22:08:07.334Z,2.60
2024-05-09T22:10:36.491Z,2.22
2024-05-09T22:13:07.585Z,2.70
2024-05-09T22:15:36.852Z,2.13
2024-05-09T22:18:05.821Z,2.13
2024-05-09T22:23:07.257Z,1.98
2024-05-09T22:25:34.872Z,2.25
2024-05-09T22:28:03.036Z,2.25
2024-05-09T22:33:08.289Z,2.10
2024-05-09T22:35:36.601Z,2.03
2024-05-09T22:38:04.317Z,2.40
2024-05-09T22:40:42.156Z,1.73
2024-05-09T22:43:18.034Z,1.90
2024-05-09T22:45:45.808Z,1.80
2024-05-09T22:48:13.462Z,1.80
2024-05-09T22:50:41.474Z,1.85
2024-05-09T22:53:08.870Z,1.58
2024-05-09T22:55:36.392Z,1.50
2024-05-09T22:58:03.963Z,1.88
2024-05-09T23:00:32.854Z,1.70
2024-05-09T23:03:01.732Z,2.10
2024-05-09T23:05:29.920Z,1.88
2024-05-09T23:07:57.406Z,1.40
2024-05-09T23:10:32.125Z,1.80
2024-05-09T23:13:04.122Z,1.83
2024-05-09T23:15:31.779Z,1.40
2024-05-09T23:17:59.501Z,1.70
2024-05-09T23:20:35.978Z,1.95
2024-05-09T23:23:07.166Z,1.60
2024-05-09T23:25:35.100Z,1.67
2024-05-09T23:28:02.832Z,1.88
2024-05-09T23:30:37.546Z,1.90
2024-05-09T23:33:08.455Z,1.50
2024-05-09T23:35:36.412Z,1.83
2024-05-09T23:38:04.268Z,1.60
2024-05-09T23:40:38.621Z,1.60
2024-05-09T23:43:09.465Z,1.85
2024-05-09T23:45:37.424Z,1.48
2024-05-09T23:48:05.643Z,1.42
2024-05-09T23:50:36.804Z,2.03
2024-05-09T23:53:07.948Z,1.52
2024-05-09T23:55:36.793Z,1.35
2024-05-09T23:58:04.462Z,2.00
